createdAt,value
2023-01-03T00:01:56.889Z,47.42
2023-01-03T00:04:27.013Z,45.72
2023-01-03T00:06:54.348Z,44.53
2023-01-03T00:09:23.947Z,45.33
2023-01-03T00:12:12.279Z,47.28
2023-01-03T00:15:06.282Z,46.72
2023-01-03T00:17:33.662Z,47.22
2023-01-03T00:20:00.942Z,46.83
2023-01-03T00:22:32.264Z,48.05
2023-01-03T00:24:59.730Z,46.47
2023-01-03T00:27:27.435Z,45.80
2023-01-03T00:29:54.798Z,47.40
2023-01-03T00:32:22.719Z,45.60
2023-01-03T00:34:50.131Z,47.17
2023-01-03T00:37:17.474Z,44.53
2023-01-03T00:39:44.865Z,46.20
2023-01-03T00:42:12.169Z,46.95
2023-01-03T00:44:39.388Z,47.88
2023-01-03T00:47:06.830Z,47.50
2023-01-03T00:49:34.187Z,45.60
2023-01-03T00:52:01.435Z,46.33
2023-01-03T00:54:30.230Z,44.08
2023-01-03T00:56:57.520Z,48.60
2023-01-03T00:59:26.188Z,47.28
2023-01-03T01:01:55.467Z,45.00
2023-01-03T01:04:28.866Z,47.20
2023-01-03T01:07:03.314Z,46.95
2023-01-03T01:09:33.516Z,46.20
2023-01-03T01:12:01.013Z,46.95
2023-01-03T01:14:30.656Z,46.70
2023-01-03T01:17:02.713Z,45.55
2023-01-03T01:19:38.723Z,44.60
2023-01-03T01:22:06.529Z,46.85
2023-01-03T01:24:34.262Z,44.88
2023-01-03T01:27:01.773Z,45.13
2023-01-03T01:29:29.132Z,44.72
2023-01-03T01:31:56.397Z,44.83
2023-01-03T01:34:23.656Z,44.78
2023-01-03T01:36:51.647Z,45.70
2023-01-03T01:39:21.754Z,45.05
2023-01-03T01:42:12.660Z,44.60
2023-01-03T01:44:58.602Z,42.97
2023-01-03T01:47:31.433Z,42.85
2023-01-03T01:50:17.404Z,43.97
2023-01-03T01:53:07.308Z,42.63
2023-01-03T01:55:48.630Z,43.05
2023-01-03T01:58:16.484Z,44.13
2023-01-03T02:00:44.744Z,42.88
2023-01-03T02:03:12.533Z,43.50
2023-01-03T02:05:44.133Z,42.58
2023-01-03T02:08:11.377Z,43.55
2023-01-03T02:10:50.923Z,44.78
2023-01-03T02:13:44.841Z,42.53
2023-01-03T02:16:20.347Z,42.50
2023-01-03T02:19:05.889Z,44.28
2023-01-03T02:21:46.210Z,42.35
2023-01-03T02:24:22.431Z,42.85
2023-01-03T02:27:12.911Z,43.28
2023-01-03T02:30:11.021Z,44.38
2023-01-03T02:33:01.720Z,42.58
2023-01-03T02:35:39.555Z,42.88
2023-01-03T02:38:18.738Z,43.83
2023-01-03T02:41:35.133Z,45.80
2023-01-03T02:44:06.129Z,46.40
2023-01-03T02:46:55.048Z,43.20
2023-01-03T02:49:32.459Z,44.78
2023-01-03T02:52:11.404Z,44.45
2023-01-03T02:54:51.113Z,44.83
2023-01-03T02:57:22.239Z,44.67
2023-01-03T03:00:03.922Z,45.30
2023-01-03T03:02:34.179Z,44.03
2023-01-03T03:05:05.476Z,44.70
2023-01-03T03:07:36.309Z,44.65
2023-01-03T03:10:24.388Z,43.90
2023-01-03T03:13:13.156Z,45.60
2023-01-03T03:15:51.793Z,43.80
2023-01-03T03:18:25.135Z,44.60
2023-01-03T03:21:14.889Z,44.03
2023-01-03T03:24:04.527Z,44.50
2023-01-03T03:26:37.709Z,43.25
2023-01-03T03:29:18.434Z,43.85
2023-01-03T03:31:50.466Z,42.47
2023-01-03T03:34:32.388Z,42.90
2023-01-03T03:37:12.370Z,45.45
2023-01-03T03:39:58.124Z,44.60
2023-01-03T03:42:48.226Z,45.17
2023-01-03T03:45:30.292Z,45.45
2023-01-03T03:48:12.701Z,45.30
2023-01-03T03:50:47.243Z,44.65
2023-01-03T03:53:18.083Z,43.17
2023-01-03T03:56:08.597Z,44.25
2023-01-03T03:58:44.219Z,42.78
2023-01-03T04:01:15.099Z,44.85
2023-01-03T04:03:46.006Z,42.17
2023-01-03T04:06:25.832Z,41.60
2023-01-03T04:08:53.127Z,40.58
2023-01-03T04:11:20.391Z,42.05
2023-01-03T04:13:47.682Z,41.30
2023-01-03T04:16:15.107Z,41.92
2023-01-03T04:18:42.405Z,39.70
2023-01-03T04:21:12.155Z,41.28
2023-01-03T04:23:42.860Z,40.38
2023-01-03T04:26:10.167Z,40.28
2023-01-03T04:28:37.470Z,39.55
2023-01-03T04:31:04.816Z,40.47
2023-01-03T04:33:32.071Z,40.03
2023-01-03T04:35:59.326Z,39.83
2023-01-03T04:38:26.563Z,39.92
2023-01-03T04:40:53.783Z,40.00
2023-01-03T04:43:39.793Z,38.95
2023-01-03T04:46:07.054Z,39.92
2023-01-03T04:48:34.478Z,39.80
2023-01-03T04:51:01.745Z,40.53
2023-01-03T04:53:29.036Z,40.00
2023-01-03T04:55:59.700Z,40.58
2023-01-03T04:58:32.857Z,40.33
2023-01-03T05:01:04.878Z,40.35
2023-01-03T05:03:32.273Z,41.90
2023-01-03T05:06:05.267Z,43.33
2023-01-03T05:08:33.367Z,41.50
2023-01-03T05:11:01.168Z,44.22
2023-01-03T05:13:28.452Z,42.78
2023-01-03T05:15:55.902Z,42.22
2023-01-03T05:18:23.520Z,44.22
2023-01-03T05:21:09.475Z,43.10
2023-01-03T05:23:55.244Z,43.53
2023-01-03T05:26:23.260Z,42.63
2023-01-03T05:28:53.285Z,43.47
2023-01-03T05:31:21.058Z,44.30
2023-01-03T05:33:49.261Z,44.05
2023-01-03T05:36:16.913Z,44.05
2023-01-03T05:38:44.197Z,43.60
2023-01-03T05:41:13.732Z,43.25
2023-01-03T05:43:41.398Z,45.53
2023-01-03T05:46:08.736Z,43.15
2023-01-03T05:48:36.331Z,44.15
2023-01-03T05:51:04.210Z,43.55
2023-01-03T05:53:31.436Z,43.67
2023-01-03T05:56:03.765Z,43.25
2023-01-03T05:58:31.110Z,43.85
2023-01-03T06:00:58.700Z,42.13
2023-01-03T06:03:26.036Z,42.95
2023-01-03T06:05:53.438Z,42.70
2023-01-03T06:08:20.694Z,42.70
2023-01-03T06:10:48.028Z,42.08
2023-01-03T06:13:16.566Z,43.15
2023-01-03T06:16:03.813Z,42.45
2023-01-03T06:18:31.033Z,43.78
2023-01-03T06:20:58.233Z,43.28
2023-01-03T06:23:25.532Z,44.38
2023-01-03T06:25:52.808Z,43.67
2023-01-03T06:28:20.168Z,41.83
2023-01-03T06:30:47.454Z,41.92
2023-01-03T06:33:14.838Z,44.05
2023-01-03T06:35:42.047Z,45.78
2023-01-03T06:38:09.923Z,42.38
2023-01-03T06:40:42.372Z,43.70
2023-01-03T06:43:12.747Z,41.00
2023-01-03T06:46:01.630Z,40.17
2023-01-03T06:48:48.179Z,40.28
2023-01-03T06:51:40.584Z,39.38
2023-01-03T06:54:10.231Z,40.10
2023-01-03T06:56:37.475Z,39.63
2023-01-03T06:59:04.984Z,40.42
2023-01-03T07:01:32.384Z,39.42
2023-01-03T07:03:59.747Z,37.25
2023-01-03T07:06:28.029Z,40.65
2023-01-03T07:08:56.750Z,39.63
2023-01-03T07:11:27.253Z,39.28
2023-01-03T07:13:59.664Z,38.67
2023-01-03T07:16:29.649Z,37.10
2023-01-03T07:18:58.188Z,38.72
2023-01-03T07:21:32.366Z,38.47
2023-01-03T07:24:01.898Z,37.53
2023-01-03T07:26:31.023Z,41.10
2023-01-03T07:28:59.559Z,41.75
2023-01-03T07:31:37.713Z,40.95
2023-01-03T07:34:05.199Z,41.38
2023-01-03T07:36:32.530Z,43.55
2023-01-03T07:38:59.773Z,43.35
2023-01-03T07:41:47.029Z,41.85
2023-01-03T07:44:14.345Z,40.88
2023-01-03T07:46:41.953Z,41.42
2023-01-03T07:49:11.823Z,41.83
2023-01-03T07:51:39.871Z,40.90
2023-01-03T07:54:07.656Z,39.45
2023-01-03T07:56:35.419Z,42.28
2023-01-03T07:59:02.829Z,43.35
2023-01-03T08:01:30.632Z,42.67
2023-01-03T08:03:58.224Z,39.78
2023-01-03T08:06:25.616Z,43.10
2023-01-03T08:09:12.109Z,40.55
2023-01-03T08:11:58.700Z,38.50
2023-01-03T08:14:27.385Z,36.25
2023-01-03T08:16:57.026Z,37.20
2023-01-03T08:19:25.024Z,38.00
2023-01-03T08:21:52.852Z,38.45
2023-01-03T08:24:20.257Z,38.78
2023-01-03T08:26:47.592Z,41.88
2023-01-03T08:29:15.346Z,42.03
2023-01-03T08:31:47.332Z,42.83
2023-01-03T08:34:19.598Z,43.28
2023-01-03T08:36:55.298Z,43.08
2023-01-03T08:39:25.986Z,41.40
2023-01-03T08:42:02.535Z,42.08
2023-01-03T08:44:29.819Z,41.00
2023-01-03T08:47:00.300Z,40.88
2023-01-03T08:49:28.021Z,41.13
2023-01-03T08:51:55.300Z,39.47
2023-01-03T08:54:22.572Z,39.28
2023-01-03T08:56:51.542Z,41.28
2023-01-03T08:59:18.987Z,40.35
2023-01-03T09:01:46.612Z,40.17
2023-01-03T09:04:14.189Z,39.03
2023-01-03T09:11:09.515Z,37.92
2023-01-03T09:13:37.819Z,38.58
2023-01-03T09:16:08.635Z,36.58
2023-01-03T09:18:37.389Z,39.53
2023-01-03T09:21:05.171Z,38.85
2023-01-03T09:23:34.396Z,37.55
2023-01-03T09:26:05.731Z,37.90
2023-01-03T09:28:58.013Z,38.13
2023-01-03T09:31:29.952Z,36.88
2023-01-03T09:34:04.616Z,38.00
2023-01-03T09:36:32.564Z,36.30
2023-01-03T09:39:24.991Z,36.85
2023-01-03T09:42:12.277Z,37.22
2023-01-03T09:44:43.009Z,36.22
2023-01-03T09:47:23.464Z,37.10
2023-01-03T09:50:27.338Z,35.55
2023-01-03T09:53:02.431Z,39.08
2023-01-03T09:56:08.021Z,34.72
2023-01-03T09:58:54.175Z,35.70
2023-01-03T10:01:57.995Z,35.05
2023-01-03T10:04:51.590Z,35.03
2023-01-03T10:07:27.934Z,35.13
2023-01-03T10:10:24.957Z,34.85
2023-01-03T10:13:26.060Z,34.80
2023-01-03T10:16:11.760Z,33.08
2023-01-03T10:19:03.807Z,34.15
2023-01-03T10:21:49.422Z,33.33
2023-01-03T10:24:25.899Z,33.05
2023-01-03T10:27:08.465Z,32.08
2023-01-03T10:29:36.082Z,31.17
2023-01-03T10:32:18.667Z,32.70
2023-01-03T10:35:15.203Z,32.15
2023-01-03T10:37:43.303Z,32.03
2023-01-03T10:40:11.690Z,31.00
2023-01-03T10:42:41.505Z,32.47
2023-01-03T10:45:17.169Z,32.58
2023-01-03T10:47:44.688Z,28.35
2023-01-03T10:50:23.369Z,28.92
2023-01-03T10:52:59.035Z,29.25
2023-01-03T10:55:27.186Z,27.60
2023-01-03T10:58:02.212Z,28.20
2023-01-03T11:00:35.724Z,28.35
2023-01-03T11:03:09.717Z,27.50
2023-01-03T11:05:38.405Z,27.63
2023-01-03T11:08:13.808Z,27.35
2023-01-03T11:10:56.409Z,27.97
2023-01-03T11:13:32.671Z,29.15
2023-01-03T11:18:30.168Z,29.20
2023-01-03T11:21:26.097Z,31.33
2023-01-03T11:24:05.192Z,30.90
2023-01-03T11:27:07.514Z,30.38
2023-01-03T11:29:46.597Z,29.48
2023-01-03T11:32:23.014Z,31.35
2023-01-03T11:35:23.510Z,28.63
2023-01-03T11:37:57.509Z,29.35
2023-01-03T11:40:46.418Z,29.48
2023-01-03T11:43:34.507Z,30.00
2023-01-03T11:46:19.994Z,30.80
2023-01-03T11:49:02.347Z,30.77
2023-01-03T11:51:58.586Z,29.10
2023-01-03T11:54:51.006Z,31.53
2023-01-03T11:57:46.835Z,30.70
2023-01-03T12:00:32.606Z,31.45
2023-01-03T12:03:27.504Z,29.58
2023-01-03T12:06:13.609Z,29.15
2023-01-03T12:08:52.125Z,30.40
2023-01-03T12:11:39.060Z,28.55
2023-01-03T12:14:22.827Z,29.88
2023-01-03T12:16:58.184Z,28.67
2023-01-03T12:19:34.328Z,29.80
2023-01-03T12:22:23.070Z,30.98
2023-01-03T12:25:00.732Z,30.80
2023-01-03T12:27:37.782Z,30.55
2023-01-03T12:30:27.407Z,30.83
2023-01-03T12:33:02.707Z,31.83
2023-01-03T12:35:59.543Z,30.83
2023-01-03T12:38:31.924Z,31.63
2023-01-03T12:41:07.849Z,31.92
2023-01-03T12:44:07.993Z,31.27
2023-01-03T12:46:41.699Z,30.30
2023-01-03T12:49:24.060Z,30.50
2023-01-03T12:51:51.384Z,30.42
2023-01-03T12:54:47.319Z,32.08
2023-01-03T12:57:23.409Z,33.92
2023-01-03T13:00:05.821Z,31.92
2023-01-03T13:02:58.535Z,31.73
2023-01-03T13:05:36.016Z,31.63
2023-01-03T13:08:30.381Z,30.63
2023-01-03T13:11:05.258Z,30.80
2023-01-03T13:13:37.375Z,30.15
2023-01-03T13:16:32.157Z,30.00
2023-01-03T13:19:21.985Z,30.88
2023-01-03T13:22:06.651Z,30.70
2023-01-03T13:24:49.426Z,31.13
2023-01-03T13:27:54.608Z,31.48
2023-01-03T13:30:41.932Z,31.80
2023-01-03T13:33:12.290Z,30.58
2023-01-03T13:35:47.705Z,30.45
2023-01-03T13:38:25.144Z,30.23
2023-01-03T13:41:17.725Z,30.15
2023-01-03T13:43:51.670Z,30.52
2023-01-03T13:46:32.036Z,30.63
2023-01-03T13:49:06.364Z,33.13
2023-01-03T13:51:54.894Z,32.80
2023-01-03T13:54:59.056Z,31.77
2023-01-03T13:57:36.649Z,31.40
2023-01-03T14:00:17.525Z,32.10
2023-01-03T14:03:18.772Z,30.90
2023-01-03T14:06:04.256Z,32.17
2023-01-03T14:08:57.625Z,29.95
2023-01-03T14:12:03.613Z,30.30
2023-01-03T14:14:36.157Z,31.85
2023-01-03T14:17:04.299Z,32.95
2023-01-03T14:19:35.620Z,32.88
2023-01-03T14:22:28.779Z,32.85
2023-01-03T14:25:00.033Z,31.20
2023-01-03T14:27:40.250Z,31.90
2023-01-03T14:30:28.381Z,32.10
2023-01-03T14:32:55.824Z,31.65
2023-01-03T14:35:39.930Z,31.70
2023-01-03T14:38:22.941Z,30.92
2023-01-03T14:40:51.420Z,32.30
2023-01-03T14:43:21.612Z,33.50
2023-01-03T14:45:54.671Z,31.20
2023-01-03T14:48:24.421Z,32.60
2023-01-03T14:50:53.083Z,32.72
2023-01-03T14:53:20.697Z,32.03
2023-01-03T14:55:56.959Z,33.75
2023-01-03T14:58:33.561Z,32.15
2023-01-03T15:01:05.164Z,33.05
2023-01-03T15:03:39.567Z,33.97
2023-01-03T15:06:30.127Z,33.80
2023-01-03T15:09:18.751Z,33.22
2023-01-03T15:11:59.320Z,33.33
2023-01-03T15:14:32.605Z,33.40
2023-01-03T15:17:06.478Z,33.05
2023-01-03T15:19:35.541Z,32.22
2023-01-03T15:22:16.654Z,33.10
2023-01-03T15:24:46.839Z,32.97
2023-01-03T15:27:39.092Z,32.10
2023-01-03T15:30:26.896Z,33.08
2023-01-03T15:32:57.883Z,31.48
2023-01-03T15:35:54.551Z,31.27
2023-01-03T15:38:33.227Z,31.38
2023-01-03T15:41:04.540Z,32.35
2023-01-03T15:43:36.868Z,32.15
2023-01-03T15:46:10.880Z,33.88
2023-01-03T15:48:38.745Z,32.97
2023-01-03T15:51:06.838Z,32.25
2023-01-03T15:53:44.355Z,30.65
2023-01-03T15:56:34.612Z,31.70
2023-01-03T15:59:07.165Z,32.15
2023-01-03T16:01:34.565Z,31.67
2023-01-03T16:04:02.367Z,31.73
2023-01-03T16:06:29.608Z,32.97
2023-01-03T16:08:56.950Z,33.80
2023-01-03T16:11:33.772Z,33.33
2023-01-03T16:14:11.843Z,33.85
2023-01-03T16:16:42.996Z,33.67
2023-01-03T16:19:27.110Z,33.90
2023-01-03T16:22:33.259Z,33.45
2023-01-03T16:24:51.330Z,32.10
2023-01-03T16:27:22.242Z,31.67
2023-01-03T16:29:49.941Z,33.70
2023-01-03T16:32:24.605Z,34.33
2023-01-03T16:34:52.755Z,34.45
2023-01-03T16:37:20.273Z,34.35
2023-01-03T16:39:48.944Z,35.08
2023-01-03T16:42:16.648Z,34.92
2023-01-03T16:44:49.651Z,34.75
2023-01-03T16:47:25.347Z,36.65
2023-01-03T16:50:01.675Z,35.65
2023-01-03T16:55:13.581Z,34.83
2023-01-03T16:57:42.679Z,34.75
2023-01-03T17:00:23.154Z,35.83
2023-01-03T17:03:15.964Z,36.75
2023-01-03T17:05:43.503Z,38.40
2023-01-03T17:08:23.471Z,37.83
2023-01-03T17:10:57.255Z,37.67
2023-01-03T17:13:40.959Z,36.22
2023-01-03T17:16:15.104Z,40.20
2023-01-03T17:18:43.476Z,40.30
2023-01-03T17:21:45.321Z,39.92
2023-01-03T17:24:20.605Z,38.92
2023-01-03T17:26:50.980Z,40.72
2023-01-03T17:29:25.691Z,39.40
2023-01-03T17:31:53.447Z,39.38
2023-01-03T17:34:26.684Z,41.55
2023-01-03T17:36:55.045Z,41.17
2023-01-03T17:39:23.188Z,40.25
2023-01-03T17:42:11.212Z,41.05
2023-01-03T17:44:39.278Z,40.63
2023-01-03T17:47:34.195Z,40.22
2023-01-03T17:50:01.482Z,40.83
2023-01-03T17:52:36.508Z,40.63
2023-01-03T17:55:07.198Z,41.03
2023-01-03T17:57:35.544Z,40.60
2023-01-03T18:00:04.771Z,40.33
2023-01-03T18:02:39.364Z,40.60
2023-01-03T18:05:18.818Z,40.78
2023-01-03T18:07:50.909Z,41.60
2023-01-03T18:10:45.850Z,41.63
2023-01-03T18:13:27.950Z,39.78
2023-01-03T18:15:55.751Z,40.40
2023-01-03T18:18:25.064Z,47.03
2023-01-03T18:20:53.409Z,44.22
2023-01-03T18:23:31.630Z,40.50
2023-01-03T18:26:04.164Z,40.70
2023-01-03T18:28:31.993Z,40.75
2023-01-03T18:30:59.677Z,40.50
2023-01-03T18:33:27.146Z,38.25
2023-01-03T18:35:54.538Z,38.47
2023-01-03T18:38:33.024Z,41.10
2023-01-03T18:41:05.282Z,43.78
2023-01-03T18:43:59.155Z,41.25
2023-01-03T18:46:27.567Z,40.60
2023-01-03T18:48:54.957Z,41.00
2023-01-03T18:51:27.318Z,39.30
2023-01-03T18:53:57.569Z,41.58
2023-01-03T18:56:27.348Z,39.10
2023-01-03T18:59:01.701Z,40.65
2023-01-03T19:01:30.626Z,39.67
2023-01-03T19:03:58.675Z,42.53
2023-01-03T19:06:30.640Z,42.05
2023-01-03T19:09:00.780Z,42.55
2023-01-03T19:11:34.650Z,41.70
2023-01-03T19:14:03.946Z,42.88
2023-01-03T19:16:33.667Z,43.30
2023-01-03T19:19:02.295Z,44.53
2023-01-03T19:42:48.104Z,44.83
2023-01-03T19:54:45.570Z,42.67
2023-01-03T19:57:19.976Z,46.03
2023-01-03T19:59:53.094Z,45.60
2023-01-03T20:02:32.715Z,44.88
2023-01-03T20:05:00.639Z,45.13
2023-01-03T20:07:28.212Z,43.50
2023-01-03T20:42:03.341Z,49.75
2023-01-03T20:44:31.263Z,53.38
2023-01-03T20:46:58.896Z,53.13
2023-01-03T20:49:28.340Z,51.42
2023-01-03T20:51:55.599Z,50.50
2023-01-03T20:54:22.948Z,51.05
2023-01-03T20:56:50.312Z,49.63
2023-01-03T20:59:20.031Z,49.17
2023-01-03T21:09:08.153Z,46.75
2023-01-03T21:11:41.460Z,47.90
2023-01-03T21:14:10.159Z,46.63
2023-01-03T21:16:52.220Z,47.15
2023-01-03T21:19:42.803Z,46.22
2023-01-03T21:22:20.334Z,47.30
2023-01-03T21:24:50.948Z,46.95
2023-01-03T21:27:22.896Z,48.58
2023-01-03T21:29:50.130Z,47.92
2023-01-03T21:32:17.565Z,46.67
2023-01-03T21:34:44.999Z,47.47
2023-01-03T21:37:12.386Z,44.90
2023-01-03T21:49:08.041Z,45.35
2023-01-03T21:51:39.015Z,45.83
2023-01-03T21:54:08.405Z,47.03
2023-01-03T21:56:44.884Z,46.85
2023-01-03T21:59:15.790Z,46.97
2023-01-03T22:02:06.432Z,46.90
2023-01-03T22:04:34.270Z,46.13
2023-01-03T22:07:02.129Z,46.65
2023-01-03T22:09:50.104Z,48.40
2023-01-03T22:12:19.334Z,48.78
2023-01-03T22:14:46.788Z,45.05
2023-01-03T22:17:14.737Z,46.75
2023-01-03T22:19:42.061Z,46.67
2023-01-03T22:22:09.638Z,46.53
2023-01-03T22:24:36.918Z,45.70
2023-01-03T22:27:04.214Z,44.08
2023-01-03T22:29:31.469Z,42.60
2023-01-03T22:31:58.857Z,40.75
2023-01-03T22:34:29.287Z,43.33
2023-01-03T22:36:57.151Z,43.88
2023-01-03T22:39:25.074Z,43.38
2023-01-03T22:41:52.269Z,41.17
2023-01-03T22:44:19.630Z,42.35
2023-01-03T22:46:46.968Z,39.55
2023-01-03T22:49:14.377Z,39.08
2023-01-03T22:51:41.779Z,39.95
2023-01-03T22:54:09.244Z,38.45
2023-01-03T22:56:36.467Z,38.72
2023-01-03T22:59:03.775Z,38.58
2023-01-03T23:01:31.693Z,40.65
2023-01-03T23:04:00.609Z,40.42
2023-01-03T23:06:30.867Z,40.95
2023-01-03T23:08:58.712Z,40.85
2023-01-03T23:11:47.562Z,40.05
2023-01-03T23:14:22.808Z,40.20
2023-01-03T23:16:51.943Z,39.27
2023-01-03T23:19:23.964Z,42.20
2023-01-03T23:21:52.714Z,40.65
2023-01-03T23:24:23.051Z,42.17
2023-01-03T23:26:51.416Z,42.25
2023-01-03T23:29:19.454Z,42.58
2023-01-03T23:31:46.889Z,42.75
2023-01-03T23:34:14.178Z,45.70
2023-01-03T23:36:43.192Z,48.67
2023-01-03T23:39:18.525Z,47.75
2023-01-03T23:41:46.579Z,46.75
2023-01-03T23:44:14.106Z,45.05
2023-01-03T23:46:41.651Z,45.67
2023-01-03T23:49:12.225Z,46.47
2023-01-03T23:51:39.935Z,46.42
2023-01-03T23:54:07.292Z,45.45
2023-01-03T23:56:34.698Z,45.67
2023-01-03T23:59:02.006Z,43.97
